createdAt,value
2023-01-18T00:00:26.296Z,5.53
2023-01-18T00:03:34.267Z,5.58
2023-01-18T00:06:49.236Z,5.50
2023-01-18T00:09:51.175Z,5.61
2023-01-18T00:13:06.268Z,5.66
2023-01-18T00:16:18.296Z,5.63
2023-01-18T00:19:33.252Z,5.68
2023-01-18T00:22:41.271Z,5.63
2023-01-18T00:25:49.840Z,5.56
2023-01-18T00:28:59.248Z,5.60
2023-01-18T00:32:14.305Z,5.68
2023-01-18T00:35:16.190Z,5.61
2023-01-18T00:38:32.326Z,5.53
2023-01-18T00:41:42.248Z,5.48
2023-01-18T00:44:57.281Z,5.43
2023-01-18T00:48:12.324Z,5.48
2023-01-18T00:51:24.388Z,5.58
2023-01-18T00:54:33.290Z,5.65
2023-01-18T00:57:48.681Z,5.74
2023-01-18T01:00:59.357Z,5.86
2023-01-18T01:04:14.292Z,5.84
2023-01-18T01:07:16.063Z,5.91
2023-01-18T01:10:31.259Z,5.91
2023-01-18T01:13:33.390Z,5.97
2023-01-18T01:16:48.357Z,5.93
2023-01-18T01:19:50.449Z,5.84
2023-01-18T01:23:16.280Z,5.81
2023-01-18T01:26:24.329Z,5.80
2023-01-18T01:29:33.006Z,5.82
2023-01-18T01:32:41.307Z,5.74
2023-01-18T01:35:49.959Z,5.79
2023-01-18T01:38:58.352Z,5.86
2023-01-18T01:42:18.295Z,5.94
2023-01-18T01:45:24.536Z,5.90
2023-01-18T01:48:40.337Z,5.82
2023-01-18T01:51:45.893Z,5.70
2023-01-18T01:55:08.271Z,5.76
2023-01-18T01:58:30.291Z,5.68
2023-01-18T02:01:40.418Z,5.81
2023-01-18T02:04:49.318Z,5.86
2023-01-18T02:08:01.252Z,5.85
2023-01-18T02:11:09.305Z,5.80
2023-01-18T02:14:19.661Z,5.80
2023-01-18T02:17:55.396Z,5.84
2023-01-18T02:21:23.317Z,5.91
2023-01-18T02:24:44.311Z,5.95
2023-01-18T02:28:29.316Z,5.92
2023-01-18T02:32:02.310Z,6.02
2023-01-18T02:35:11.131Z,6.07
2023-01-18T02:38:32.386Z,6.14
2023-01-18T02:41:44.239Z,6.14
2023-01-18T02:44:59.348Z,6.06
2023-01-18T02:48:02.355Z,6.21
2023-01-18T02:51:18.322Z,6.31
2023-01-18T02:54:20.120Z,6.26
2023-01-18T02:57:42.308Z,6.32
2023-01-18T03:00:57.372Z,6.33
2023-01-18T03:04:13.448Z,6.42
2023-01-18T03:07:28.349Z,6.41
2023-01-18T03:10:48.041Z,6.28
2023-01-18T03:14:15.389Z,6.23
2023-01-18T03:17:44.340Z,6.16
2023-01-18T03:20:53.882Z,6.18
2023-01-18T03:24:12.386Z,6.23
2023-01-18T03:27:14.633Z,6.21
2023-01-18T03:30:29.321Z,6.16
2023-01-18T03:33:34.206Z,6.26
2023-01-18T03:36:53.363Z,6.29
2023-01-18T03:40:02.149Z,6.31
2023-01-18T03:43:22.339Z,6.35
2023-01-18T03:46:33.416Z,6.31
2023-01-18T03:49:42.348Z,6.30
2023-01-18T03:52:57.786Z,6.30
2023-01-18T03:56:27.365Z,6.32
2023-01-18T03:59:35.280Z,6.39
2023-01-18T04:02:52.398Z,6.42
2023-01-18T04:05:54.288Z,6.41
2023-01-18T04:09:09.388Z,6.45
2023-01-18T04:12:17.357Z,6.45
2023-01-18T04:15:32.356Z,6.42
2023-01-18T04:18:40.366Z,6.37
2023-01-18T04:21:49.076Z,6.32
2023-01-18T04:24:57.428Z,6.31
2023-01-18T04:28:13.369Z,6.27
2023-01-18T04:31:15.190Z,6.31
2023-01-18T04:34:30.381Z,6.30
2023-01-18T04:37:32.215Z,6.26
2023-01-18T04:40:47.480Z,6.31
2023-01-18T04:43:55.381Z,6.23
2023-01-18T04:47:04.033Z,6.21
2023-01-18T04:50:13.403Z,6.26
2023-01-18T04:53:22.347Z,6.33
2023-01-18T04:56:37.405Z,6.40
2023-01-18T04:59:52.426Z,6.33
2023-01-18T05:02:54.257Z,6.30
2023-01-18T05:06:09.408Z,6.20
2023-01-18T05:09:12.003Z,6.19
2023-01-18T05:12:27.392Z,6.16
2023-01-18T05:15:29.286Z,6.14
2023-01-18T05:18:44.448Z,6.14
2023-01-18T05:21:53.409Z,6.12
2023-01-18T05:25:02.074Z,6.00
2023-01-18T05:28:10.508Z,6.01
2023-01-18T05:31:25.470Z,5.92
2023-01-18T05:34:33.572Z,5.91
2023-01-18T05:37:42.031Z,5.93
2023-01-18T05:40:51.387Z,6.00
2023-01-18T05:44:06.463Z,5.99
2023-01-18T05:47:15.118Z,6.49
2023-01-18T05:50:23.432Z,6.47
2023-01-18T05:53:38.432Z,6.25
2023-01-18T05:56:53.400Z,6.22
2023-01-18T06:00:02.280Z,6.21
2023-01-18T06:03:10.928Z,6.11
2023-01-18T06:06:25.460Z,6.03
2023-01-18T06:09:27.440Z,6.00
2023-01-18T06:12:42.444Z,5.86
2023-01-18T06:15:44.293Z,5.65
2023-01-18T06:18:59.435Z,5.73
2023-01-18T06:22:09.494Z,5.82
2023-01-18T06:25:18.456Z,5.76
2023-01-18T06:28:30.271Z,5.67
2023-01-18T06:31:45.530Z,5.72
2023-01-18T06:34:53.425Z,5.84
2023-01-18T06:38:09.520Z,5.79
2023-01-18T06:41:11.392Z,5.79
2023-01-18T06:44:26.437Z,5.69
2023-01-18T06:47:28.245Z,5.61
2023-01-18T06:50:43.440Z,5.61
2023-01-18T06:53:45.309Z,5.54
2023-01-18T06:57:07.444Z,5.65
2023-01-18T07:00:17.466Z,5.64
2023-01-18T07:03:27.625Z,5.50
2023-01-18T07:06:36.532Z,5.33
2023-01-18T07:09:47.943Z,5.38
2023-01-18T07:12:56.838Z,5.38
2023-01-18T07:16:12.536Z,5.46
2023-01-18T07:19:25.441Z,5.41
2023-01-18T07:22:34.512Z,5.38
2023-01-18T07:25:43.204Z,5.38
2023-01-18T07:28:58.470Z,5.25
2023-01-18T07:32:07.291Z,5.37
2023-01-18T07:35:15.636Z,5.22
2023-01-18T07:38:25.184Z,5.41
2023-01-18T07:41:33.522Z,5.35
2023-01-18T07:44:42.181Z,5.28
2023-01-18T07:47:56.516Z,5.32
2023-01-18T07:51:07.485Z,5.36
2023-01-18T07:54:22.495Z,5.15
2023-01-18T07:57:30.792Z,5.19
2023-01-18T08:00:45.504Z,5.28
2023-01-18T08:03:55.469Z,5.35
2023-01-18T08:07:10.598Z,5.37
2023-01-18T08:10:19.525Z,5.35
2023-01-18T08:13:28.680Z,5.55
2023-01-18T08:19:49.550Z,5.39
2023-01-18T08:23:04.474Z,5.62
2023-01-18T08:26:13.215Z,5.49
2023-01-18T08:29:27.496Z,5.50
2023-01-18T08:32:35.520Z,5.40
2023-01-18T08:35:46.935Z,5.38
2023-01-18T08:42:18.675Z,5.50
2023-01-18T08:45:23.245Z,5.57
2023-01-18T08:48:39.609Z,5.63
2023-01-18T08:51:53.628Z,5.62
2023-01-18T08:55:10.599Z,5.70
2023-01-18T08:58:12.651Z,5.67
2023-01-18T09:01:29.661Z,5.79
2023-01-18T09:04:39.562Z,5.93
2023-01-18T09:07:48.248Z,5.92
2023-01-18T09:10:57.840Z,5.93
2023-01-18T09:14:06.379Z,6.01
2023-01-18T09:17:14.548Z,6.11
2023-01-18T09:20:31.727Z,6.14
2023-01-18T09:23:34.672Z,6.79
2023-01-18T09:26:49.619Z,7.40
2023-01-18T09:29:51.623Z,8.07
2023-01-18T09:33:08.659Z,7.64
2023-01-18T09:36:13.352Z,7.31
2023-01-18T09:39:33.406Z,6.79
2023-01-18T09:43:00.013Z,8.75
2023-01-18T09:46:08.804Z,7.79
2023-01-18T09:49:37.000Z,7.55
2023-01-18T09:53:26.620Z,7.26
2023-01-18T09:57:00.686Z,7.38
2023-01-18T10:00:26.599Z,7.21
2023-01-18T10:03:45.605Z,7.31
2023-01-18T10:06:59.466Z,7.27
2023-01-18T10:10:09.653Z,6.98
2023-01-18T10:13:35.629Z,7.33
2023-01-18T10:16:43.995Z,7.16
2023-01-18T10:19:52.645Z,8.36
2023-01-18T10:23:12.702Z,8.32
2023-01-18T10:26:36.571Z,8.21
2023-01-18T10:30:15.432Z,8.59
2023-01-18T10:33:35.583Z,7.91
2023-01-18T10:36:44.608Z,8.69
2023-01-18T10:40:05.630Z,8.99
2023-01-18T10:43:21.620Z,8.67
2023-01-18T10:46:30.379Z,8.12
2023-01-18T10:50:05.680Z,7.79
2023-01-18T10:53:27.649Z,7.76
2023-01-18T10:56:36.652Z,7.96
2023-01-18T10:59:45.611Z,8.36
2023-01-18T11:03:10.163Z,8.45
2023-01-18T11:06:26.604Z,8.23
2023-01-18T11:09:41.674Z,8.47
2023-01-18T11:12:58.036Z,8.73
2023-01-18T11:16:09.112Z,8.33
2023-01-18T11:19:24.650Z,8.22
2023-01-18T11:22:33.775Z,8.59
2023-01-18T11:25:58.541Z,8.52
2023-01-18T11:29:08.699Z,8.77
2023-01-18T11:36:18.068Z,8.64
2023-01-18T11:39:37.608Z,9.22
2023-01-18T11:43:05.637Z,9.59
2023-01-18T11:46:34.999Z,9.68
2023-01-18T11:49:51.679Z,8.85
2023-01-18T11:53:17.528Z,8.34
2023-01-18T11:56:39.689Z,8.30
2023-01-18T11:59:50.768Z,8.21
2023-01-18T12:03:32.631Z,8.01
2023-01-18T12:07:10.627Z,8.17
2023-01-18T12:10:29.688Z,8.40
2023-01-18T12:13:55.585Z,8.78
2023-01-18T12:17:39.995Z,8.63
2023-01-18T12:21:18.004Z,8.34
2023-01-18T12:24:34.999Z,8.53
2023-01-18T12:28:20.624Z,8.51
2023-01-18T12:35:45.888Z,8.54
2023-01-18T12:38:59.340Z,8.26
2023-01-18T12:46:31.693Z,8.37
2023-01-18T12:50:15.213Z,8.24
2023-01-18T12:53:53.943Z,8.15
2023-01-18T12:57:08.867Z,8.52
2023-01-18T13:00:36.836Z,8.59
2023-01-18T13:04:11.839Z,9.37
2023-01-18T13:07:23.312Z,9.85
2023-01-18T13:10:50.677Z,9.80
2023-01-18T13:18:08.654Z,8.98
2023-01-18T13:21:39.811Z,8.77
2023-01-18T13:25:16.649Z,8.82
2023-01-18T13:28:33.798Z,9.07
2023-01-18T13:31:53.009Z,8.99
2023-01-18T13:35:25.889Z,8.90
2023-01-18T13:38:41.677Z,8.82
2023-01-18T13:42:14.760Z,8.72
2023-01-18T13:45:21.151Z,8.48
2023-01-18T13:48:54.716Z,8.21
2023-01-18T13:52:24.333Z,8.23
2023-01-18T13:55:34.989Z,8.09
2023-01-18T13:58:59.895Z,7.90
2023-01-18T14:02:20.529Z,7.93
2023-01-18T14:05:43.740Z,7.87
2023-01-18T14:08:52.660Z,7.86
2023-01-18T14:12:08.698Z,7.85
2023-01-18T14:15:25.354Z,7.87
2023-01-18T14:18:40.799Z,7.82
2023-01-18T14:22:15.725Z,7.80
2023-01-18T14:26:01.923Z,7.73
2023-01-18T14:29:18.000Z,7.64
2023-01-18T14:32:31.795Z,7.72
2023-01-18T14:35:50.169Z,7.69
2023-01-18T14:39:18.802Z,7.60
2023-01-18T14:42:44.820Z,7.58
2023-01-18T14:45:56.113Z,7.65
2023-01-18T14:49:10.856Z,7.67
2023-01-18T14:52:34.919Z,7.64
2023-01-18T14:55:43.739Z,7.56
2023-01-18T14:59:03.794Z,7.54
2023-01-18T15:02:23.955Z,7.60
2023-01-18T15:05:38.810Z,7.64
2023-01-18T15:08:45.199Z,7.62
2023-01-18T15:12:04.858Z,7.59
2023-01-18T15:15:22.765Z,7.75
2023-01-18T15:18:38.794Z,7.73
2023-01-18T15:21:48.763Z,7.74
2023-01-18T15:24:59.756Z,7.76
2023-01-18T15:28:23.021Z,7.50
2023-01-18T15:31:38.797Z,7.46
2023-01-18T15:34:51.830Z,7.42
2023-01-18T15:38:06.752Z,7.43
2023-01-18T15:41:13.047Z,7.46
2023-01-18T15:44:40.781Z,7.41
2023-01-18T15:47:48.339Z,7.39
2023-01-18T15:51:10.817Z,7.47
2023-01-18T15:54:25.975Z,7.47
2023-01-18T15:57:36.205Z,7.50
2023-01-18T16:00:50.213Z,7.49
2023-01-18T16:04:01.587Z,7.51
2023-01-18T16:07:30.180Z,7.54
2023-01-18T16:10:47.808Z,7.71
2023-01-18T16:14:04.770Z,7.63
2023-01-18T16:17:23.748Z,7.66
2023-01-18T16:20:25.757Z,7.62
2023-01-18T16:23:40.775Z,9.67
2023-01-18T16:26:43.677Z,11.54
2023-01-18T16:30:03.757Z,12.47
2023-01-18T16:33:22.768Z,10.98
2023-01-18T16:36:27.611Z,10.34
2023-01-18T16:39:46.912Z,9.81
2023-01-18T16:43:09.799Z,10.04
2023-01-18T16:46:19.240Z,9.01
2023-01-18T16:49:34.841Z,8.51
2023-01-18T16:52:52.810Z,8.16
2023-01-18T16:56:07.796Z,8.09
2023-01-18T16:59:16.294Z,7.97
2023-01-18T17:02:31.895Z,7.80
2023-01-18T17:05:41.808Z,7.74
2023-01-18T17:08:51.312Z,7.73
2023-01-18T17:11:59.938Z,7.65
2023-01-18T17:15:08.768Z,7.66
2023-01-18T17:18:21.816Z,7.68
2023-01-18T17:21:36.816Z,7.63
2023-01-18T17:24:39.068Z,7.59
2023-01-18T17:27:54.847Z,7.65
2023-01-18T17:30:56.867Z,7.65
2023-01-18T17:34:12.105Z,7.63
2023-01-18T17:37:14.272Z,7.65
2023-01-18T17:40:39.266Z,7.72
2023-01-18T17:44:01.895Z,7.75
2023-01-18T17:47:03.856Z,7.69
2023-01-18T17:50:20.857Z,7.72
2023-01-18T17:53:46.049Z,7.76
2023-01-18T17:56:54.856Z,7.78
2023-01-18T18:00:03.804Z,7.78
2023-01-18T18:03:13.612Z,7.79
2023-01-18T18:06:30.983Z,7.72
2023-01-18T18:09:40.190Z,7.74
2023-01-18T18:16:30.526Z,7.75
2023-01-18T18:19:33.341Z,7.69
2023-01-18T18:22:48.820Z,7.68
2023-01-18T18:26:04.211Z,7.63
2023-01-18T18:29:18.871Z,7.62
2023-01-18T18:32:21.225Z,7.44
2023-01-18T18:35:35.836Z,7.38
2023-01-18T18:38:38.039Z,7.31
2023-01-18T18:41:53.843Z,7.38
2023-01-18T18:45:02.203Z,7.29
2023-01-18T18:48:18.933Z,7.05
2023-01-18T18:51:22.501Z,7.09
2023-01-18T18:54:36.916Z,7.03
2023-01-18T18:57:45.817Z,6.88
2023-01-18T19:00:53.846Z,6.92
2023-01-18T19:04:09.913Z,6.96
2023-01-18T19:07:11.765Z,6.95
2023-01-18T19:10:27.968Z,6.94
2023-01-18T19:13:30.348Z,6.93
2023-01-18T19:16:44.857Z,6.88
2023-01-18T19:19:46.964Z,6.84
2023-01-18T19:23:03.588Z,6.90
2023-01-18T19:26:13.900Z,6.89
2023-01-18T19:29:26.361Z,6.92
2023-01-18T19:32:35.902Z,6.91
2023-01-18T19:35:45.696Z,6.84
2023-01-18T19:38:59.666Z,6.85
2023-01-18T19:42:21.916Z,6.71
2023-01-18T19:45:32.256Z,6.76
2023-01-18T19:48:47.847Z,6.76
2023-01-18T19:51:49.957Z,6.78
2023-01-18T19:55:05.908Z,6.75
2023-01-18T19:58:15.181Z,6.74
2023-01-18T20:01:36.855Z,6.71
2023-01-18T20:04:45.944Z,6.70
2023-01-18T20:07:56.087Z,6.69
2023-01-18T20:11:12.909Z,6.67
2023-01-18T20:14:24.474Z,6.67
2023-01-18T20:17:45.868Z,6.64
2023-01-18T20:20:56.977Z,6.67
2023-01-18T20:24:06.328Z,6.67
2023-01-18T20:27:16.737Z,6.63
2023-01-18T20:30:25.568Z,6.65
2023-01-18T20:33:36.556Z,6.66
2023-01-18T20:36:59.428Z,6.72
2023-01-18T20:40:09.254Z,6.50
2023-01-18T20:43:37.574Z,6.70
2023-01-18T20:50:24.964Z,6.64
2023-01-18T20:53:35.978Z,6.63
2023-01-18T20:56:50.981Z,6.67
2023-01-18T20:59:59.964Z,6.64
2023-01-18T21:03:13.169Z,6.65
2023-01-18T21:06:21.915Z,6.66
2023-01-18T21:09:30.672Z,6.66
2023-01-18T21:12:38.972Z,6.67
2023-01-18T21:16:01.907Z,6.72
2023-01-18T21:19:10.906Z,6.54
2023-01-18T21:22:27.048Z,6.66
2023-01-18T21:25:36.035Z,6.62
2023-01-18T21:28:50.944Z,6.65
2023-01-18T21:32:00.116Z,6.61
2023-01-18T21:35:09.168Z,6.66
2023-01-18T21:38:20.655Z,6.66
2023-01-18T21:41:41.968Z,6.69
2023-01-18T21:44:56.935Z,6.62
2023-01-18T21:48:05.851Z,6.75
2023-01-18T21:51:15.953Z,6.76
2023-01-18T21:54:24.763Z,6.73
2023-01-18T21:57:33.008Z,6.59
2023-01-18T22:00:48.062Z,6.54
2023-01-18T22:03:51.432Z,6.64
2023-01-18T22:07:06.986Z,6.71
2023-01-18T22:10:15.980Z,6.72
2023-01-18T22:13:31.078Z,6.68
2023-01-18T22:16:33.522Z,6.73
2023-01-18T22:19:48.006Z,6.75
2023-01-18T22:22:57.203Z,6.75
2023-01-18T22:26:06.144Z,6.77
2023-01-18T22:29:35.034Z,6.78
2023-01-18T22:40:18.403Z,6.70
2023-01-18T22:47:36.836Z,6.67
2023-01-18T22:50:58.937Z,6.63
2023-01-18T22:54:00.816Z,6.62
2023-01-18T22:57:15.941Z,6.60
2023-01-18T23:00:24.962Z,6.62
2023-01-18T23:03:33.690Z,6.61
2023-01-18T23:06:42.489Z,6.62
2023-01-18T23:09:56.996Z,6.64
2023-01-18T23:13:05.986Z,6.59
2023-01-18T23:16:20.993Z,6.58
2023-01-18T23:19:23.994Z,6.61
2023-01-18T23:22:39.028Z,6.62
2023-01-18T23:25:40.829Z,6.65
2023-01-18T23:28:56.003Z,6.56
2023-01-18T23:31:58.610Z,6.65
2023-01-18T23:35:14.992Z,6.64
2023-01-18T23:38:23.035Z,6.61
2023-01-18T23:41:31.571Z,6.55
2023-01-18T23:44:40.026Z,6.58
2023-01-18T23:48:02.440Z,6.56
2023-01-18T23:51:04.772Z,6.55
2023-01-18T23:54:19.996Z,6.58
2023-01-18T23:57:21.957Z,6.47
